Terminal Aerodrome Forecast
Issued by NWS

Home | Current Version | Previous Version | Text Only | Print | Product List | Glossary On
Versions: 1 2 3 4 5 6 7 8 9 10 11 12 13 14 15 16 17 18 19 20 21 22 23
000
FTUS43 KDMX 291850 AAA
TAFMCW
TAF AMD
KMCW 291850Z 2919/3018 21005KT 6SM -TSRA BR BKN040CB OVC150
     FM292200 17004KT P6SM VCSH SCT060 BKN150
     FM300200 19003KT P6SM BKN120
     FM300800 VRB03KT 3SM BR SCT003 BKN140
      TEMPO 3010/3012 1SM BR SCT003
     FM301300 VRB03KT P6SM SCT040 BKN150=

USA.gov is the U.S. government's official web portal to all federal, state and local government web resources and services.